Pagina principale
METAR-TAF:

METAR-TAF

Aeroporti :

Monte Scuro, Italia

latitudine: 39-20N, longitudine: 016-24E, altezza: 1710 m

Osservazione

Il bollettino è stato emesso 1 ora e 11 minuti fa, alle 12:55 UTC
Vento 4 kt da ovest/sud-ovest, variando fra sud e nord-ovest
Temperature 20°C
Umidità 49%
Pressione 1026 hPa
Visibilità 10 km o più
Nubi sparse ad un'altezza di 400 ft
Nuvoloso ad un'altezza di 4000 ft

METAR: LIBQ 271255Z 25004KT 190V310 9999 SCT004 BKN040 20/09 Q1026 RMK BKN MON LIB VAL NIL VIS MIN 9999

Ora: 16:06 (14:06 UTC)


TAF: mancante

Osservazioni e previsioni meteorologiche di più di 4000 aeroporti (messaggi METAR e TAF).

Le stazioni disponibili sono rappresentate dai dischi gialli e rossi sulla carta.

Puntare il mouse per vedere il nome della stazione.

Clicca sopra per visualizzare le osservazioni e previsioni meteorologiche.

Per cambiare la mappa : fare clic sui pulsanti verdi con una croce nera per ingrandire, il pulsante verde con un trattino per diminuire, o sulla freccia verde per le mappe adiacenti.


METAR-TAF: